sensor_id;sensor_type;location;lat;lon;timestamp;pressure;altitude;pressure_sealevel;temperature;humidity
65756;BME280;69208;47.502;18.940;2023-08-17T00:00:08;98456.97;;;19.73;100.00
65756;BME280;69208;47.502;18.940;2023-08-17T00:01:13;98457.66;;;19.70;100.00
65756;BME280;69208;47.502;18.940;2023-08-17T00:02:16;98458.06;;;19.72;100.00
65756;BME280;69208;47.502;18.940;2023-08-17T00:03:19;98459.19;;;19.71;100.00
65756;BME280;69208;47.502;18.940;2023-08-17T00:04:22;98458.06;;;19.72;100.00
65756;BME280;69208;47.502;18.940;2023-08-17T00:05:25;98452.06;;;19.75;100.00
65756;BME280;69208;47.502;18.940;2023-08-17T00:06:29;98455.09;;;19.74;100.00
65756;BME280;69208;47.502;18.940;2023-08-17T00:07:33;98455.78;;;19.71;100.00
65756;BME280;69208;47.502;18.940;2023-08-17T00:08:36;98455.78;;;19.71;100.00
65756;BME280;69208;47.502;18.940;2023-08-17T00:09:39;98454.31;;;19.73;100.00
65756;BME280;69208;47.502;18.940;2023-08-17T00:10:42;98459.13;;;19.68;100.00
65756;BME280;69208;47.502;18.940;2023-08-17T00:11:45;98462.47;;;19.65;100.00
65756;BME280;69208;47.502;18.940;2023-08-17T00:12:48;98456.69;;;19.63;100.00
65756;BME280;69208;47.502;18.940;2023-08-17T00:13:51;98445.53;;;19.57;100.00
65756;BME280;69208;47.502;18.940;2023-08-17T00:14:54;98447.88;;;19.59;100.00
65756;BME280;69208;47.502;18.940;2023-08-17T00:15:57;98452.84;;;19.60;100.00
65756;BME280;69208;47.502;18.940;2023-08-17T00:17:00;98449.78;;;19.58;100.00
65756;BME280;69208;47.502;18.940;2023-08-17T00:18:03;98449.41;;;19.60;100.00
65756;BME280;69208;47.502;18.940;2023-08-17T00:19:06;98447.44;;;19.57;100.00
65756;BME280;69208;47.502;18.940;2023-08-17T00:20:10;98443.59;;;19.54;100.00
65756;BME280;69208;47.502;18.940;2023-08-17T00:21:14;98432.78;;;19.47;100.00
65756;BME280;69208;47.502;18.940;2023-08-17T00:22:17;98442.72;;;19.50;100.00
65756;BME280;69208;47.502;18.940;2023-08-17T00:23:19;98435.16;;;19.52;100.00
65756;BME280;69208;47.502;18.940;2023-08-17T00:24:23;98437.41;;;19.50;100.00
65756;BME280;69208;47.502;18.940;2023-08-17T00:25:26;98438.50;;;19.49;100.00
65756;BME280;69208;47.502;18.940;2023-08-17T00:26:29;98437.06;;;19.51;100.00
65756;BME280;69208;47.502;18.940;2023-08-17T00:27:32;98437.25;;;19.59;100.00
65756;BME280;69208;47.502;18.940;2023-08-17T00:28:36;98435.28;;;19.55;100.00
65756;BME280;69208;47.502;18.940;2023-08-17T00:29:39;98432.25;;;19.57;100.00
65756;BME280;69208;47.502;18.940;2023-08-17T00:30:42;98438.25;;;19.54;100.00
65756;BME280;69208;47.502;18.940;2023-08-17T00:31:45;98436.81;;;19.57;100.00
65756;BME280;69208;47.502;18.940;2023-08-17T00:32:48;98431.16;;;19.58;100.00
65756;BME280;69208;47.502;18.940;2023-08-17T00:33:51;98429.59;;;19.57;100.00
65756;BME280;69208;47.502;18.940;2023-08-17T00:34:54;98435.69;;;19.58;100.00
65756;BME280;69208;47.502;18.940;2023-08-17T00:35:57;98430.72;;;19.56;100.00
65756;BME280;69208;47.502;18.940;2023-08-17T00:36:59;98425.41;;;19.56;100.00
65756;BME280;69208;47.502;18.940;2023-08-17T00:38:03;98422.06;;;19.59;100.00
65756;BME280;69208;47.502;18.940;2023-08-17T00:39:06;98429.28;;;19.59;100.00
65756;BME280;69208;47.502;18.940;2023-08-17T00:40:09;98428.69;;;19.49;100.00
65756;BME280;69208;47.502;18.940;2023-08-17T00:41:13;98431.06;;;19.54;100.00
65756;BME280;69208;47.502;18.940;2023-08-17T00:42:16;98431.06;;;19.54;100.00
65756;BME280;69208;47.502;18.940;2023-08-17T00:43:19;98432.19;;;19.53;100.00
65756;BME280;69208;47.502;18.940;2023-08-17T00:44:22;98425.41;;;19.56;100.00
65756;BME280;69208;47.502;18.940;2023-08-17T00:45:25;98425.06;;;19.58;100.00
65756;BME280;69208;47.502;18.940;2023-08-17T00:46:29;98422.75;;;19.56;100.00
65756;BME280;69208;47.502;18.940;2023-08-17T00:47:33;98432.25;;;19.57;100.00
65756;BME280;69208;47.502;18.940;2023-08-17T00:48:36;98423.44;;;19.53;100.00
65756;BME280;69208;47.502;18.940;2023-08-17T00:49:39;98420.44;;;19.54;100.00
65756;BME280;69208;47.502;18.940;2023-08-17T00:50:43;98431.50;;;19.57;100.00
65756;BME280;69208;47.502;18.940;2023-08-17T00:51:49;98431.06;;;19.54;100.00
65756;BME280;69208;47.502;18.940;2023-08-17T00:52:53;98437.81;;;19.52;100.00
65756;BME280;69208;47.502;18.940;2023-08-17T00:53:58;98435.59;;;19.54;100.00
65756;BME280;69208;47.502;18.940;2023-08-17T00:55:02;98436.66;;;19.49;100.00
65756;BME280;69208;47.502;18.940;2023-08-17T00:56:06;98440.69;;;19.43;100.00
65756;BME280;69208;47.502;18.940;2023-08-17T00:57:10;98435.44;;;19.47;100.00
65756;BME280;69208;47.502;18.940;2023-08-17T00:58:14;98440.75;;;19.47;100.00
65756;BME280;69208;47.502;18.940;2023-08-17T00:59:17;98448.31;;;19.45;100.00
65756;BME280;69208;47.502;18.940;2023-08-17T01:00:20;98439.13;;;19.42;100.00
65756;BME280;69208;47.502;18.940;2023-08-17T01:01:23;98439.47;;;19.41;100.00
65756;BME280;69208;47.502;18.940;2023-08-17T01:02:26;98443.66;;;19.42;100.00
65756;BME280;69208;47.502;18.940;2023-08-17T01:03:30;98443.22;;;19.40;100.00
65756;BME280;69208;47.502;18.940;2023-08-17T01:04:33;98453.53;;;19.41;100.00
65756;BME280;69208;47.502;18.940;2023-08-17T01:05:36;98449.31;;;19.40;100.00
65756;BME280;69208;47.502;18.940;2023-08-17T01:06:40;98449.66;;;19.39;100.00
65756;BME280;69208;47.502;18.940;2023-08-17T01:07:43;98445.47;;;19.38;100.00
65756;BME280;69208;47.502;18.940;2023-08-17T01:08:46;98451.66;;;19.42;100.00
65756;BME280;69208;47.502;18.940;2023-08-17T01:09:49;98444.44;;;19.42;100.00
65756;BME280;69208;47.502;18.940;2023-08-17T01:11:02;98447.53;;;19.44;100.00
65756;BME280;69208;47.502;18.940;2023-08-17T01:12:34;98450.19;;;19.44;100.00
65756;BME280;69208;47.502;18.940;2023-08-17T01:13:41;98452.69;;;19.53;100.00
65756;BME280;69208;47.502;18.940;2023-08-17T01:15:13;98452.09;;;19.44;100.00
65756;BME280;69208;47.502;18.940;2023-08-17T01:16:26;98449.66;;;19.39;100.00
65756;BME280;69208;47.502;18.940;2023-08-17T01:17:43;98460.31;;;19.39;100.00
65756;BME280;69208;47.502;18.940;2023-08-17T01:18:50;98453.53;;;19.41;100.00
65756;BME280;69208;47.502;18.940;2023-08-17T01:19:56;98451.97;;;19.40;100.00
65756;BME280;69208;47.502;18.940;2023-08-17T01:21:00;98452.16;;;19.31;100.00
65756;BME280;69208;47.502;18.940;2023-08-17T01:22:05;98455.16;;;19.30;100.00
65756;BME280;69208;47.502;18.940;2023-08-17T01:23:09;98455.16;;;19.30;100.00
65756;BME280;69208;47.502;18.940;2023-08-17T01:24:12;98455.91;;;19.30;100.00
65756;BME280;69208;47.502;18.940;2023-08-17T01:25:15;98456.59;;;19.27;100.00
65756;BME280;69208;47.502;18.940;2023-08-17T01:26:18;98458.50;;;19.27;100.00
65756;BME280;69208;47.502;18.940;2023-08-17T01:27:21;98455.16;;;19.30;100.00
65756;BME280;69208;47.502;18.940;2023-08-17T01:28:25;98460.03;;;19.28;100.00
65756;BME280;69208;47.502;18.940;2023-08-17T01:29:28;98459.94;;;19.24;100.00
65756;BME280;69208;47.502;18.940;2023-08-17T01:30:44;98456.69;;;19.31;100.00
65756;BME280;69208;47.502;18.940;2023-08-17T01:33:35;98459.09;;;19.20;100.00
65756;BME280;69208;47.502;18.940;2023-08-17T01:34:47;98447.78;;;19.23;100.00
65756;BME280;69208;47.502;18.940;2023-08-17T01:37:31;98448.38;;;19.17;100.00
65756;BME280;69208;47.502;18.940;2023-08-17T01:38:37;98448.38;;;19.17;100.00
65756;BME280;69208;47.502;18.940;2023-08-17T01:39:44;98445.81;;;19.20;100.00
65756;BME280;69208;47.502;18.940;2023-08-17T01:40:48;98439.81;;;19.23;100.00
65756;BME280;69208;47.502;18.940;2023-08-17T01:41:52;98444.00;;;19.24;100.00
65756;BME280;69208;47.502;18.940;2023-08-17T01:42:58;98442.03;;;19.21;100.00
65756;BME280;69208;47.502;18.940;2023-08-17T01:44:01;98440.41;;;19.17;100.00
65756;BME280;69208;47.502;18.940;2023-08-17T01:45:05;98433.53;;;19.16;100.00
65756;BME280;69208;47.502;18.940;2023-08-17T01:46:08;98443.06;;;19.17;100.00
65756;BME280;69208;47.502;18.940;2023-08-17T01:47:11;98447.94;;;19.15;100.00
65756;BME280;69208;47.502;18.940;2023-08-17T01:48:14;98438.94;;;19.19;100.00
65756;BME280;69208;47.502;18.940;2023-08-17T01:49:18;98442.47;;;19.23;100.00
65756;BME280;69208;47.502;18.940;2023-08-17T01:50:21;98439.06;;;19.23;100.00
65756;BME280;69208;47.502;18.940;2023-08-17T01:51:24;98436.81;;;19.25;100.00
65756;BME280;69208;47.502;18.940;2023-08-17T01:52:28;98437.16;;;19.23;100.00
65756;BME280;69208;47.502;18.940;2023-08-17T01:53:31;98442.03;;;19.21;100.00
65756;BME280;69208;47.502;18.940;2023-08-17T01:54:34;98439.37;;;19.21;100.00
65756;BME280;69208;47.502;18.940;2023-08-17T01:55:38;98437.56;;;19.25;100.00
65756;BME280;69208;47.502;18.940;2023-08-17T01:56:41;98440.91;;;19.22;100.00
65756;BME280;69208;47.502;18.940;2023-08-17T01:57:44;98441.03;;;19.26;100.00
65756;BME280;69208;47.502;18.940;2023-08-17T01:58:47;98442.56;;;19.27;100.00
65756;BME280;69208;47.502;18.940;2023-08-17T01:59:50;98437.31;;;19.30;100.00
65756;BME280;69208;47.502;18.940;2023-08-17T02:00:52;98438.53;;;19.33;100.00
65756;BME280;69208;47.502;18.940;2023-08-17T02:01:55;98434.34;;;19.32;100.00
65756;BME280;69208;47.502;18.940;2023-08-17T02:02:58;98438.09;;;19.31;100.00
65756;BME280;69208;47.502;18.940;2023-08-17T02:04:03;98442.38;;;19.36;100.00
65756;BME280;69208;47.502;18.940;2023-08-17T02:05:06;98448.91;;;19.38;100.00
65756;BME280;69208;47.502;18.940;2023-08-17T02:06:09;98432.53;;;19.36;100.00
65756;BME280;69208;47.502;18.940;2023-08-17T02:07:12;98443.59;;;19.38;100.00
65756;BME280;69208;47.502;18.940;2023-08-17T02:08:15;98441.00;;;19.42;100.00
65756;BME280;69208;47.502;18.940;2023-08-17T02:09:18;98438.34;;;19.42;100.00
65756;BME280;69208;47.502;18.940;2023-08-17T02:10:21;98436.81;;;19.41;100.00
65756;BME280;69208;47.502;18.940;2023-08-17T02:11:24;98443.34;;;19.43;100.00
65756;BME280;69208;47.502;18.940;2023-08-17T02:12:27;98442.28;;;19.48;100.00
65756;BME280;69208;47.502;18.940;2023-08-17T02:13:30;98439.63;;;19.48;100.00
65756;BME280;69208;47.502;18.940;2023-08-17T02:14:33;98448.38;;;19.48;100.00
65756;BME280;69208;47.502;18.940;2023-08-17T02:15:39;98439.63;;;19.48;100.00
65756;BME280;69208;47.502;18.940;2023-08-17T02:16:42;98440.41;;;19.48;100.00
65756;BME280;69208;47.502;18.940;2023-08-17T02:17:46;98443.84;;;19.49;100.00
65756;BME280;69208;47.502;18.940;2023-08-17T02:18:48;98444.00;;;19.56;100.00
65756;BME280;69208;47.502;18.940;2023-08-17T02:19:51;98440.66;;;19.59;100.00
65756;BME280;69208;47.502;18.940;2023-08-17T02:20:54;98444.78;;;19.57;100.00
65756;BME280;69208;47.502;18.940;2023-08-17T02:21:58;98445.22;;;19.59;100.00
65756;BME280;69208;47.502;18.940;2023-08-17T02:23:01;98445.81;;;19.52;100.00
65756;BME280;69208;47.502;18.940;2023-08-17T02:24:04;98443.06;;;19.48;100.00
65756;BME280;69208;47.502;18.940;2023-08-17T02:25:08;98437.41;;;19.50;100.00
65756;BME280;69208;47.502;18.940;2023-08-17T02:26:11;98437.22;;;19.43;100.00
65756;BME280;69208;47.502;18.940;2023-08-17T02:27:14;98439.88;;;19.43;100.00
65756;BME280;69208;47.502;18.940;2023-08-17T02:28:17;98434.25;;;19.44;100.00
65756;BME280;69208;47.502;18.940;2023-08-17T02:29:20;98443.66;;;19.42;100.00
65756;BME280;69208;47.502;18.940;2023-08-17T02:30:23;98441.88;;;19.46;100.00
65756;BME280;69208;47.502;18.940;2023-08-17T02:31:26;98442.38;;;19.51;100.00
65756;BME280;69208;47.502;18.940;2023-08-17T02:32:29;98441.88;;;19.46;100.00
65756;BME280;69208;47.502;18.940;2023-08-17T02:33:32;98444.78;;;19.41;100.00
65756;BME280;69208;47.502;18.940;2023-08-17T02:34:36;98443.66;;;19.42;100.00
65756;BME280;69208;47.502;18.940;2023-08-17T02:35:39;98447.78;;;19.39;100.00
65756;BME280;69208;47.502;18.940;2023-08-17T02:36:42;98440.94;;;19.38;100.00
65756;BME280;69208;47.502;18.940;2023-08-17T02:37:45;98447.78;;;19.39;100.00
65756;BME280;69208;47.502;18.940;2023-08-17T02:38:48;98448.91;;;19.38;100.00
65756;BME280;69208;47.502;18.940;2023-08-17T02:39:51;98449.91;;;19.33;100.00
65756;BME280;69208;47.502;18.940;2023-08-17T02:40:54;98447.63;;;19.32;100.00
65756;BME280;69208;47.502;18.940;2023-08-17T02:41:57;98441.94;;;19.33;100.00
65756;BME280;69208;47.502;18.940;2023-08-17T02:43:00;98442.72;;;19.34;100.00
65756;BME280;69208;47.502;18.940;2023-08-17T02:44:03;98447.34;;;19.37;100.00
65756;BME280;69208;47.502;18.940;2023-08-17T02:45:07;98441.25;;;19.37;100.00
65756;BME280;69208;47.502;18.940;2023-08-17T02:46:11;98445.47;;;19.38;100.00
65756;BME280;69208;47.502;18.940;2023-08-17T02:47:14;98438.34;;;19.42;100.00
65756;BME280;69208;47.502;18.940;2023-08-17T02:48:17;98440.25;;;19.41;100.00
65756;BME280;69208;47.502;18.940;2023-08-17T02:49:20;98427.97;;;19.37;100.00
65756;BME280;69208;47.502;18.940;2023-08-17T02:50:23;98433.03;;;19.42;100.00
65756;BME280;69208;47.502;18.940;2023-08-17T02:51:26;98423.87;;;19.39;100.00
65756;BME280;69208;47.502;18.940;2023-08-17T02:52:29;98431.41;;;19.37;100.00
65756;BME280;69208;47.502;18.940;2023-08-17T02:53:33;98434.41;;;19.36;100.00
65756;BME280;69208;47.502;18.940;2023-08-17T02:54:36;98433.22;;;19.33;100.00
65756;BME280;69208;47.502;18.940;2023-08-17T02:55:39;98432.78;;;19.31;100.00
65756;BME280;69208;47.502;18.940;2023-08-17T02:56:42;98432.78;;;19.31;100.00
65756;BME280;69208;47.502;18.940;2023-08-17T02:57:45;98432.00;;;19.30;100.00
65756;BME280;69208;47.502;18.940;2023-08-17T02:58:48;98430.81;;;19.28;100.00
65756;BME280;69208;47.502;18.940;2023-08-17T02:59:51;98425.78;;;19.23;100.00
65756;BME280;69208;47.502;18.940;2023-08-17T03:00:54;98433.75;;;19.23;100.00
65756;BME280;69208;47.502;18.940;2023-08-17T03:01:57;98422.69;;;19.21;100.00
65756;BME280;69208;47.502;18.940;2023-08-17T03:03:00;98430.56;;;19.17;100.00
65756;BME280;69208;47.502;18.940;2023-08-17T03:04:03;98433.22;;;19.17;100.00
65756;BME280;69208;47.502;18.940;2023-08-17T03:05:06;98429.69;;;19.13;100.00
65756;BME280;69208;47.502;18.940;2023-08-17T03:06:09;98425.41;;;19.08;100.00
65756;BME280;69208;47.502;18.940;2023-08-17T03:07:12;98435.28;;;19.08;100.00
65756;BME280;69208;47.502;18.940;2023-08-17T03:08:15;98424.53;;;19.04;100.00
65756;BME280;69208;47.502;18.940;2023-08-17T03:09:18;98430.72;;;19.08;100.00
65756;BME280;69208;47.502;18.940;2023-08-17T03:10:22;98430.03;;;19.12;100.00
65756;BME280;69208;47.502;18.940;2023-08-17T03:11:27;98431.13;;;19.10;100.00
65756;BME280;69208;47.502;18.940;2023-08-17T03:12:30;98428.06;;;19.08;100.00
65756;BME280;69208;47.502;18.940;2023-08-17T03:13:33;98438.00;;;19.12;100.00
65756;BME280;69208;47.502;18.940;2023-08-17T03:14:36;98435.97;;;19.21;100.00
65756;BME280;69208;47.502;18.940;2023-08-17T03:15:39;98436.81;;;19.25;100.00
65756;BME280;69208;47.502;18.940;2023-08-17T03:16:42;98435.19;;;19.20;100.00
65756;BME280;69208;47.502;18.940;2023-08-17T03:17:45;98432.53;;;19.20;100.00
65756;BME280;69208;47.502;18.940;2023-08-17T03:18:49;98436.19;;;19.16;100.00
65756;BME280;69208;47.502;18.940;2023-08-17T03:19:52;98433.31;;;19.21;100.00
65756;BME280;69208;47.502;18.940;2023-08-17T03:20:55;98435.59;;;19.22;100.00
65756;BME280;69208;47.502;18.940;2023-08-17T03:21:58;98437.09;;;19.20;100.00
65756;BME280;69208;47.502;18.940;2023-08-17T03:23:00;98436.56;;;19.14;100.00
65756;BME280;69208;47.502;18.940;2023-08-17T03:24:04;98432.69;;;19.12;100.00
65756;BME280;69208;47.502;18.940;2023-08-17T03:25:07;98437.25;;;19.11;100.00
65756;BME280;69208;47.502;18.940;2023-08-17T03:26:11;98436.81;;;19.09;100.00
65756;BME280;69208;47.502;18.940;2023-08-17T03:27:14;98432.69;;;19.12;100.00
65756;BME280;69208;47.502;18.940;2023-08-17T03:28:17;98436.38;;;19.07;100.00
65756;BME280;69208;47.502;18.940;2023-08-17T03:29:20;98431.06;;;19.07;100.00
65756;BME280;69208;47.502;18.940;2023-08-17T03:30:23;98429.44;;;19.02;100.00
65756;BME280;69208;47.502;18.940;2023-08-17T03:31:26;98435.16;;;19.04;100.00
65756;BME280;69208;47.502;18.940;2023-08-17T03:32:29;98425.13;;;18.98;100.00
65756;BME280;69208;47.502;18.940;2023-08-17T03:33:32;98432.78;;;18.99;100.00
65756;BME280;69208;47.502;18.940;2023-08-17T03:34:35;98428.16;;;18.96;100.00
65756;BME280;69208;47.502;18.940;2023-08-17T03:35:38;98423.59;;;18.97;100.00
65756;BME280;69208;47.502;18.940;2023-08-17T03:36:40;98423.16;;;18.95;100.00
65756;BME280;69208;47.502;18.940;2023-08-17T03:37:43;98425.81;;;18.95;100.00
65756;BME280;69208;47.502;18.940;2023-08-17T03:38:48;98428.03;;;18.93;100.00
65756;BME280;69208;47.502;18.940;2023-08-17T03:39:50;98428.81;;;18.93;100.00
65756;BME280;69208;47.502;18.940;2023-08-17T03:40:54;98421.28;;;18.95;100.00
65756;BME280;69208;47.502;18.940;2023-08-17T03:41:57;98422.16;;;18.99;100.00
65756;BME280;69208;47.502;18.940;2023-08-17T03:43:00;98428.41;;;19.07;100.00
65756;BME280;69208;47.502;18.940;2023-08-17T03:44:03;98420.09;;;19.08;100.00
65756;BME280;69208;47.502;18.940;2023-08-17T03:45:09;98419.34;;;19.08;100.00
65756;BME280;69208;47.502;18.940;2023-08-17T03:46:11;98417.09;;;19.10;100.00
65756;BME280;69208;47.502;18.940;2023-08-17T03:47:15;98422.69;;;19.05;100.00
65756;BME280;69208;47.502;18.940;2023-08-17T03:48:18;98419.22;;;19.04;100.00
65756;BME280;69208;47.502;18.940;2023-08-17T03:49:21;98424.44;;;19.01;100.00
65756;BME280;69208;47.502;18.940;2023-08-17T03:50:27;98422.25;;;19.03;100.00
65756;BME280;69208;47.502;18.940;2023-08-17T03:51:30;98424.44;;;19.01;100.00
65756;BME280;69208;47.502;18.940;2023-08-17T03:52:33;98426.34;;;19.00;100.00
65756;BME280;69208;47.502;18.940;2023-08-17T03:53:36;98427.62;;;19.06;100.00
65756;BME280;69208;47.502;18.940;2023-08-17T03:54:39;98420.78;;;19.05;100.00
65756;BME280;69208;47.502;18.940;2023-08-17T03:55:49;98431.81;;;19.07;100.00
65756;BME280;69208;47.502;18.940;2023-08-17T03:56:52;98431.94;;;19.11;100.00
65756;BME280;69208;47.502;18.940;2023-08-17T03:57:55;98431.34;;;19.18;100.00
65756;BME280;69208;47.502;18.940;2023-08-17T03:58:58;98432.44;;;19.17;100.00
65756;BME280;69208;47.502;18.940;2023-08-17T04:00:01;98427.16;;;19.17;100.00
65756;BME280;69208;47.502;18.940;2023-08-17T04:01:04;98428.47;;;19.10;100.00
65756;BME280;69208;47.502;18.940;2023-08-17T04:02:09;98432.69;;;19.12;100.00
65756;BME280;69208;47.502;18.940;2023-08-17T04:03:12;98430.37;;;19.10;100.00
65756;BME280;69208;47.502;18.940;2023-08-17T04:04:15;98430.44;;;19.14;100.00
65756;BME280;69208;47.502;18.940;2023-08-17T04:05:18;98432.19;;;19.06;100.00
65756;BME280;69208;47.502;18.940;2023-08-17T04:06:21;98426.44;;;19.04;100.00
65756;BME280;69208;47.502;18.940;2023-08-17T04:07:24;98433.53;;;19.00;100.00
65756;BME280;69208;47.502;18.940;2023-08-17T04:08:27;98433.53;;;19.00;100.00
65756;BME280;69208;47.502;18.940;2023-08-17T04:09:30;98436.88;;;18.97;100.00
65756;BME280;69208;47.502;18.940;2023-08-17T04:10:36;98445.53;;;18.94;100.00
65756;BME280;69208;47.502;18.940;2023-08-17T04:11:39;98441.22;;;18.89;100.00
65756;BME280;69208;47.502;18.940;2023-08-17T04:12:42;98442.34;;;18.88;100.00
65756;BME280;69208;47.502;18.940;2023-08-17T04:13:45;98441.22;;;18.89;100.00
65756;BME280;69208;47.502;18.940;2023-08-17T04:14:48;98438.66;;;18.93;100.00
65756;BME280;69208;47.502;18.940;2023-08-17T04:15:52;98441.97;;;18.90;100.00
65756;BME280;69208;47.502;18.940;2023-08-17T04:16:55;98445.16;;;18.95;100.00
65756;BME280;69208;47.502;18.940;2023-08-17T04:18:00;98440.38;;;19.01;100.00
65756;BME280;69208;47.502;18.940;2023-08-17T04:19:03;98441.16;;;19.01;100.00
65756;BME280;69208;47.502;18.940;2023-08-17T04:20:06;98435.94;;;19.05;100.00
65756;BME280;69208;47.502;18.940;2023-08-17T04:21:10;98445.00;;;19.04;100.00
65756;BME280;69208;47.502;18.940;2023-08-17T04:22:13;98442.88;;;19.09;100.00
65756;BME280;69208;47.502;18.940;2023-08-17T04:23:16;98444.59;;;19.18;100.00
65756;BME280;69208;47.502;18.940;2023-08-17T04:24:19;98448.03;;;19.18;100.00
65756;BME280;69208;47.502;18.940;2023-08-17T04:25:22;98443.50;;;19.19;100.00
65756;BME280;69208;47.502;18.940;2023-08-17T04:26:25;98444.78;;;19.25;100.00
65756;BME280;69208;47.502;18.940;2023-08-17T04:27:28;98458.50;;;19.27;100.00
65756;BME280;69208;47.502;18.940;2023-08-17T04:28:30;98455.47;;;19.28;100.00
65756;BME280;69208;47.502;18.940;2023-08-17T04:29:34;98443.50;;;19.35;100.00
65756;BME280;69208;47.502;18.940;2023-08-17T04:30:37;98442.72;;;19.34;100.00
65756;BME280;69208;47.502;18.940;2023-08-17T04:31:41;98442.72;;;19.34;100.00
65756;BME280;69208;47.502;18.940;2023-08-17T04:32:44;98441.62;;;19.35;100.00
65756;BME280;69208;47.502;18.940;2023-08-17T04:33:47;98434.84;;;19.38;100.00
65756;BME280;69208;47.502;18.940;2023-08-17T04:34:50;98437.41;;;19.34;100.00
65756;BME280;69208;47.502;18.940;2023-08-17T04:35:56;98446.06;;;19.31;100.00
65756;BME280;69208;47.502;18.940;2023-08-17T04:36:59;98438.09;;;19.31;100.00
65756;BME280;69208;47.502;18.940;2023-08-17T04:38:02;98437.69;;;19.29;100.00
65756;BME280;69208;47.502;18.940;2023-08-17T04:39:05;98447.88;;;19.27;100.00
65756;BME280;69208;47.502;18.940;2023-08-17T04:40:08;98443.00;;;19.29;100.00
65756;BME280;69208;47.502;18.940;2023-08-17T04:41:12;98438.53;;;19.33;100.00
65756;BME280;69208;47.502;18.940;2023-08-17T04:42:15;98435.53;;;19.35;100.00
65756;BME280;69208;47.502;18.940;2023-08-17T04:43:18;98439.13;;;19.42;100.00
65756;BME280;69208;47.502;18.940;2023-08-17T04:44:21;98438.44;;;19.45;100.00
65756;BME280;69208;47.502;18.940;2023-08-17T04:45:24;98443.84;;;19.49;100.00
65756;BME280;69208;47.502;18.940;2023-08-17T04:46:27;98444.44;;;19.42;100.00
65756;BME280;69208;47.502;18.940;2023-08-17T04:47:30;98443.75;;;19.45;100.00
65756;BME280;69208;47.502;18.940;2023-08-17T04:48:33;98447.88;;;19.43;100.00
65756;BME280;69208;47.502;18.940;2023-08-17T04:49:36;98448.38;;;19.48;100.00
65756;BME280;69208;47.502;18.940;2023-08-17T04:50:39;98444.88;;;19.44;100.00
65756;BME280;69208;47.502;18.940;2023-08-17T04:51:42;98449.00;;;19.42;100.00
65756;BME280;69208;47.502;18.940;2023-08-17T04:52:45;98447.88;;;19.43;100.00
65756;BME280;69208;47.502;18.940;2023-08-17T04:53:48;98451.81;;;19.49;100.00
65756;BME280;69208;47.502;18.940;2023-08-17T04:54:51;98454.13;;;19.50;100.00
65756;BME280;69208;47.502;18.940;2023-08-17T04:55:54;98448.38;;;19.48;100.00
65756;BME280;69208;47.502;18.940;2023-08-17T04:56:57;98457.72;;;19.42;100.00
65756;BME280;69208;47.502;18.940;2023-08-17T04:58:00;98455.59;;;19.48;100.00
65756;BME280;69208;47.502;18.940;2023-08-17T04:59:03;98461.84;;;19.55;100.00
65756;BME280;69208;47.502;18.940;2023-08-17T05:00:06;98461.84;;;19.55;100.00
65756;BME280;69208;47.502;18.940;2023-08-17T05:01:13;98457.31;;;19.56;100.00
65756;BME280;69208;47.502;18.940;2023-08-17T05:02:15;98449.31;;;19.56;100.00
65756;BME280;69208;47.502;18.940;2023-08-17T05:03:18;98450.88;;;19.57;100.00
65756;BME280;69208;47.502;18.940;2023-08-17T05:04:35;98452.31;;;19.54;100.00
65756;BME280;69208;47.502;18.940;2023-08-17T05:05:38;98447.09;;;19.58;100.00
65756;BME280;69208;47.502;18.940;2023-08-17T05:06:41;98458.16;;;19.60;100.00
65756;BME280;69208;47.502;18.940;2023-08-17T05:07:45;98458.69;;;19.66;100.00
65756;BME280;69208;47.502;18.940;2023-08-17T05:08:48;98451.16;;;19.68;100.00
65756;BME280;69208;47.502;18.940;2023-08-17T05:09:51;98450.03;;;19.69;100.00
65756;BME280;69208;47.502;18.940;2023-08-17T05:10:54;98450.38;;;19.67;100.00
65756;BME280;69208;47.502;18.940;2023-08-17T05:11:57;98456.97;;;19.73;100.00
65756;BME280;69208;47.502;18.940;2023-08-17T05:13:00;98453.28;;;19.78;100.00
65756;BME280;69208;47.502;18.940;2023-08-17T05:14:04;98448.81;;;19.82;100.00
65756;BME280;69208;47.502;18.940;2023-08-17T05:15:07;98448.91;;;19.86;100.00
65756;BME280;69208;47.502;18.940;2023-08-17T05:16:12;98459.88;;;19.84;100.00
65756;BME280;69208;47.502;18.940;2023-08-17T05:17:15;98454.72;;;19.91;100.00
65756;BME280;69208;47.502;18.940;2023-08-17T05:18:18;98453.94;;;19.91;100.00
65756;BME280;69208;47.502;18.940;2023-08-17T05:19:21;98449.47;;;19.95;100.00
65756;BME280;69208;47.502;18.940;2023-08-17T05:20:24;98454.88;;;19.98;100.00
65756;BME280;69208;47.502;18.940;2023-08-17T05:21:28;98450.75;;;20.01;100.00
65756;BME280;69208;47.502;18.940;2023-08-17T05:22:32;98463.41;;;20.08;100.00
65756;BME280;69208;47.502;18.940;2023-08-17T05:23:35;98453.34;;;20.17;100.00
65756;BME280;69208;47.502;18.940;2023-08-17T05:24:38;98452.31;;;20.21;100.00
65756;BME280;69208;47.502;18.940;2023-08-17T05:25:41;98457.28;;;20.23;100.00
65756;BME280;69208;47.502;18.940;2023-08-17T05:26:44;98452.31;;;20.21;100.00
65756;BME280;69208;47.502;18.940;2023-08-17T05:27:47;98450.16;;;20.27;100.00
65756;BME280;69208;47.502;18.940;2023-08-17T05:28:51;98444.41;;;20.25;100.00
65756;BME280;69208;47.502;18.940;2023-08-17T05:29:54;98449.19;;;20.35;100.00
65756;BME280;69208;47.502;18.940;2023-08-17T05:31:06;98439.66;;;20.34;100.00
65756;BME280;69208;47.502;18.940;2023-08-17T05:32:09;98454.37;;;20.48;100.00